sensor_id;sensor_type;location;lat;lon;timestamp;P1;durP1;ratioP1;P2;durP2;ratioP2
23187;SDS011;11762;59.878;17.686;2023-01-15T00:00:50;13.30;;;4.77;;
23187;SDS011;11762;59.878;17.686;2023-01-15T00:03:17;17.77;;;4.67;;
23187;SDS011;11762;59.878;17.686;2023-01-15T00:05:44;19.80;;;5.83;;
23187;SDS011;11762;59.878;17.686;2023-01-15T00:08:11;12.87;;;4.93;;
23187;SDS011;11762;59.878;17.686;2023-01-15T00:10:38;19.97;;;5.93;;
23187;SDS011;11762;59.878;17.686;2023-01-15T00:13:05;14.73;;;4.50;;
23187;SDS011;11762;59.878;17.686;2023-01-15T00:15:32;18.67;;;4.97;;
23187;SDS011;11762;59.878;17.686;2023-01-15T00:18:01;17.47;;;4.87;;
23187;SDS011;11762;59.878;17.686;2023-01-15T00:20:29;14.77;;;5.40;;
23187;SDS011;11762;59.878;17.686;2023-01-15T00:22:56;17.63;;;5.27;;
23187;SDS011;11762;59.878;17.686;2023-01-15T00:25:23;15.47;;;5.30;;
23187;SDS011;11762;59.878;17.686;2023-01-15T00:28:07;19.80;;;5.63;;
23187;SDS011;11762;59.878;17.686;2023-01-15T00:30:38;14.57;;;5.13;;
23187;SDS011;11762;59.878;17.686;2023-01-15T00:33:07;15.77;;;4.60;;
23187;SDS011;11762;59.878;17.686;2023-01-15T00:35:35;19.47;;;5.57;;
23187;SDS011;11762;59.878;17.686;2023-01-15T00:38:02;15.37;;;5.20;;
23187;SDS011;11762;59.878;17.686;2023-01-15T00:40:29;20.37;;;5.17;;
23187;SDS011;11762;59.878;17.686;2023-01-15T00:42:56;18.20;;;5.93;;
23187;SDS011;11762;59.878;17.686;2023-01-15T00:45:23;21.47;;;5.27;;
23187;SDS011;11762;59.878;17.686;2023-01-15T00:47:50;22.37;;;6.67;;
23187;SDS011;11762;59.878;17.686;2023-01-15T00:50:18;23.57;;;6.30;;
23187;SDS011;11762;59.878;17.686;2023-01-15T00:52:45;22.27;;;5.57;;
23187;SDS011;11762;59.878;17.686;2023-01-15T00:55:12;28.50;;;5.47;;
23187;SDS011;11762;59.878;17.686;2023-01-15T00:57:39;23.90;;;6.30;;
23187;SDS011;11762;59.878;17.686;2023-01-15T01:00:08;30.10;;;6.00;;
23187;SDS011;11762;59.878;17.686;2023-01-15T01:02:37;16.73;;;6.07;;
23187;SDS011;11762;59.878;17.686;2023-01-15T01:05:04;32.70;;;6.47;;
23187;SDS011;11762;59.878;17.686;2023-01-15T01:07:33;26.57;;;6.00;;
23187;SDS011;11762;59.878;17.686;2023-01-15T01:10:00;28.87;;;7.23;;
23187;SDS011;11762;59.878;17.686;2023-01-15T01:12:27;19.63;;;5.57;;
23187;SDS011;11762;59.878;17.686;2023-01-15T01:14:54;21.20;;;5.53;;
23187;SDS011;11762;59.878;17.686;2023-01-15T01:17:21;23.80;;;6.77;;
23187;SDS011;11762;59.878;17.686;2023-01-15T01:19:48;26.80;;;6.90;;
23187;SDS011;11762;59.878;17.686;2023-01-15T01:22:15;28.00;;;6.40;;
23187;SDS011;11762;59.878;17.686;2023-01-15T01:24:43;25.93;;;6.87;;
23187;SDS011;11762;59.878;17.686;2023-01-15T01:27:11;26.43;;;5.80;;
23187;SDS011;11762;59.878;17.686;2023-01-15T01:29:38;25.50;;;6.60;;
23187;SDS011;11762;59.878;17.686;2023-01-15T01:32:05;19.50;;;5.80;;
23187;SDS011;11762;59.878;17.686;2023-01-15T01:34:32;27.33;;;6.27;;
23187;SDS011;11762;59.878;17.686;2023-01-15T01:36:59;14.50;;;5.73;;
23187;SDS011;11762;59.878;17.686;2023-01-15T01:39:26;22.13;;;6.07;;
23187;SDS011;11762;59.878;17.686;2023-01-15T01:41:54;21.60;;;5.50;;
23187;SDS011;11762;59.878;17.686;2023-01-15T01:47:24;24.27;;;6.17;;
23187;SDS011;11762;59.878;17.686;2023-01-15T01:49:53;16.50;;;5.47;;
23187;SDS011;11762;59.878;17.686;2023-01-15T01:52:26;13.90;;;5.20;;
23187;SDS011;11762;59.878;17.686;2023-01-15T01:54:57;19.40;;;6.17;;
23187;SDS011;11762;59.878;17.686;2023-01-15T01:57:26;14.87;;;4.77;;
23187;SDS011;11762;59.878;17.686;2023-01-15T01:59:54;24.40;;;6.00;;
23187;SDS011;11762;59.878;17.686;2023-01-15T02:02:22;16.33;;;5.27;;
23187;SDS011;11762;59.878;17.686;2023-01-15T02:04:50;24.20;;;5.43;;
23187;SDS011;11762;59.878;17.686;2023-01-15T02:07:17;11.33;;;4.37;;
23187;SDS011;11762;59.878;17.686;2023-01-15T02:09:44;12.63;;;5.17;;
23187;SDS011;11762;59.878;17.686;2023-01-15T02:12:13;16.07;;;3.77;;
23187;SDS011;11762;59.878;17.686;2023-01-15T02:14:48;15.17;;;3.83;;
23187;SDS011;11762;59.878;17.686;2023-01-15T02:17:24;9.17;;;3.47;;
23187;SDS011;11762;59.878;17.686;2023-01-15T02:20:02;9.93;;;3.30;;
23187;SDS011;11762;59.878;17.686;2023-01-15T02:23:02;6.57;;;2.80;;
23187;SDS011;11762;59.878;17.686;2023-01-15T02:25:44;11.93;;;3.17;;
23187;SDS011;11762;59.878;17.686;2023-01-15T02:28:30;7.63;;;2.47;;
23187;SDS011;11762;59.878;17.686;2023-01-15T02:31:00;7.47;;;2.30;;
23187;SDS011;11762;59.878;17.686;2023-01-15T02:33:34;8.07;;;2.07;;
23187;SDS011;11762;59.878;17.686;2023-01-15T02:36:04;14.23;;;2.27;;
23187;SDS011;11762;59.878;17.686;2023-01-15T02:38:35;8.53;;;3.07;;
23187;SDS011;11762;59.878;17.686;2023-01-15T02:41:07;3.67;;;1.40;;
23187;SDS011;11762;59.878;17.686;2023-01-15T02:43:42;5.33;;;1.57;;
23187;SDS011;11762;59.878;17.686;2023-01-15T02:46:13;11.87;;;1.97;;
23187;SDS011;11762;59.878;17.686;2023-01-15T02:48:42;6.87;;;1.67;;
23187;SDS011;11762;59.878;17.686;2023-01-15T02:51:13;8.30;;;1.73;;
23187;SDS011;11762;59.878;17.686;2023-01-15T02:53:43;5.03;;;1.50;;
23187;SDS011;11762;59.878;17.686;2023-01-15T02:56:13;7.03;;;1.50;;
23187;SDS011;11762;59.878;17.686;2023-01-15T02:58:43;5.03;;;1.33;;
23187;SDS011;11762;59.878;17.686;2023-01-15T03:01:12;3.53;;;1.47;;
23187;SDS011;11762;59.878;17.686;2023-01-15T03:03:43;5.20;;;1.33;;
23187;SDS011;11762;59.878;17.686;2023-01-15T03:06:17;3.50;;;1.37;;
23187;SDS011;11762;59.878;17.686;2023-01-15T03:08:50;3.77;;;1.30;;
23187;SDS011;11762;59.878;17.686;2023-01-15T03:11:17;6.93;;;1.10;;
23187;SDS011;11762;59.878;17.686;2023-01-15T03:13:49;3.80;;;1.50;;
23187;SDS011;11762;59.878;17.686;2023-01-15T03:16:24;5.77;;;1.57;;
23187;SDS011;11762;59.878;17.686;2023-01-15T03:19:04;3.93;;;1.00;;
23187;SDS011;11762;59.878;17.686;2023-01-15T03:21:47;4.30;;;1.27;;
23187;SDS011;11762;59.878;17.686;2023-01-15T03:24:22;3.23;;;1.27;;
23187;SDS011;11762;59.878;17.686;2023-01-15T03:26:53;2.60;;;1.10;;
23187;SDS011;11762;59.878;17.686;2023-01-15T03:29:22;2.87;;;1.03;;
23187;SDS011;11762;59.878;17.686;2023-01-15T03:31:53;5.43;;;1.30;;
23187;SDS011;11762;59.878;17.686;2023-01-15T03:34:20;8.23;;;1.73;;
23187;SDS011;11762;59.878;17.686;2023-01-15T03:36:47;2.30;;;1.20;;
23187;SDS011;11762;59.878;17.686;2023-01-15T03:39:14;4.60;;;1.50;;
23187;SDS011;11762;59.878;17.686;2023-01-15T03:41:44;5.60;;;1.50;;
23187;SDS011;11762;59.878;17.686;2023-01-15T03:44:18;5.53;;;1.47;;
23187;SDS011;11762;59.878;17.686;2023-01-15T03:47:01;2.63;;;1.40;;
23187;SDS011;11762;59.878;17.686;2023-01-15T03:49:37;1.93;;;1.00;;
23187;SDS011;11762;59.878;17.686;2023-01-15T03:52:14;3.57;;;1.13;;
23187;SDS011;11762;59.878;17.686;2023-01-15T03:54:46;8.77;;;1.13;;
23187;SDS011;11762;59.878;17.686;2023-01-15T03:57:20;2.77;;;1.00;;
23187;SDS011;11762;59.878;17.686;2023-01-15T03:59:54;2.60;;;1.10;;
23187;SDS011;11762;59.878;17.686;2023-01-15T04:02:24;5.00;;;1.10;;
23187;SDS011;11762;59.878;17.686;2023-01-15T04:04:54;3.20;;;0.90;;
23187;SDS011;11762;59.878;17.686;2023-01-15T04:07:22;2.93;;;1.00;;
23187;SDS011;11762;59.878;17.686;2023-01-15T04:09:51;3.97;;;1.00;;
23187;SDS011;11762;59.878;17.686;2023-01-15T04:12:18;3.77;;;1.23;;
23187;SDS011;11762;59.878;17.686;2023-01-15T04:14:45;3.13;;;0.90;;
23187;SDS011;11762;59.878;17.686;2023-01-15T04:17:13;3.87;;;1.50;;
23187;SDS011;11762;59.878;17.686;2023-01-15T04:19:40;3.30;;;0.90;;
23187;SDS011;11762;59.878;17.686;2023-01-15T04:22:08;6.27;;;1.20;;
23187;SDS011;11762;59.878;17.686;2023-01-15T04:24:36;4.80;;;1.23;;
23187;SDS011;11762;59.878;17.686;2023-01-15T04:27:03;1.97;;;0.83;;
23187;SDS011;11762;59.878;17.686;2023-01-15T04:29:30;2.10;;;1.07;;
23187;SDS011;11762;59.878;17.686;2023-01-15T04:31:57;3.80;;;0.90;;
23187;SDS011;11762;59.878;17.686;2023-01-15T04:34:26;5.17;;;1.10;;
23187;SDS011;11762;59.878;17.686;2023-01-15T04:36:54;2.07;;;1.03;;
23187;SDS011;11762;59.878;17.686;2023-01-15T04:39:21;1.93;;;0.87;;
23187;SDS011;11762;59.878;17.686;2023-01-15T04:41:48;5.47;;;1.17;;
23187;SDS011;11762;59.878;17.686;2023-01-15T04:44:33;2.27;;;1.00;;
23187;SDS011;11762;59.878;17.686;2023-01-15T04:47:00;6.97;;;0.97;;
23187;SDS011;11762;59.878;17.686;2023-01-15T04:49:29;4.97;;;1.00;;
23187;SDS011;11762;59.878;17.686;2023-01-15T04:51:56;3.73;;;0.80;;
23187;SDS011;11762;59.878;17.686;2023-01-15T04:54:23;1.97;;;0.80;;
23187;SDS011;11762;59.878;17.686;2023-01-15T04:56:51;1.70;;;0.60;;
23187;SDS011;11762;59.878;17.686;2023-01-15T04:59:20;2.37;;;0.63;;
23187;SDS011;11762;59.878;17.686;2023-01-15T05:01:49;1.70;;;0.70;;
23187;SDS011;11762;59.878;17.686;2023-01-15T05:04:16;2.20;;;0.80;;
23187;SDS011;11762;59.878;17.686;2023-01-15T05:06:44;1.77;;;0.77;;
23187;SDS011;11762;59.878;17.686;2023-01-15T05:09:11;1.40;;;0.70;;
23187;SDS011;11762;59.878;17.686;2023-01-15T05:11:38;1.37;;;0.57;;
23187;SDS011;11762;59.878;17.686;2023-01-15T05:14:06;2.37;;;0.60;;
23187;SDS011;11762;59.878;17.686;2023-01-15T05:16:34;4.70;;;0.73;;
23187;SDS011;11762;59.878;17.686;2023-01-15T05:19:03;3.40;;;0.77;;
23187;SDS011;11762;59.878;17.686;2023-01-15T05:21:32;2.70;;;0.80;;
23187;SDS011;11762;59.878;17.686;2023-01-15T05:24:03;1.17;;;0.67;;
23187;SDS011;11762;59.878;17.686;2023-01-15T05:26:32;2.20;;;0.80;;
23187;SDS011;11762;59.878;17.686;2023-01-15T05:29:01;4.17;;;1.00;;
23187;SDS011;11762;59.878;17.686;2023-01-15T05:31:28;2.17;;;0.63;;
23187;SDS011;11762;59.878;17.686;2023-01-15T05:33:57;2.03;;;0.70;;
23187;SDS011;11762;59.878;17.686;2023-01-15T05:36:25;5.60;;;0.80;;
23187;SDS011;11762;59.878;17.686;2023-01-15T05:38:55;1.03;;;0.60;;
23187;SDS011;11762;59.878;17.686;2023-01-15T05:41:27;1.93;;;0.70;;
23187;SDS011;11762;59.878;17.686;2023-01-15T05:44:12;2.27;;;0.80;;
23187;SDS011;11762;59.878;17.686;2023-01-15T05:46:41;1.00;;;0.50;;
23187;SDS011;11762;59.878;17.686;2023-01-15T05:49:09;2.07;;;0.80;;
23187;SDS011;11762;59.878;17.686;2023-01-15T05:51:37;1.70;;;0.70;;
23187;SDS011;11762;59.878;17.686;2023-01-15T05:54:06;5.13;;;1.03;;
23187;SDS011;11762;59.878;17.686;2023-01-15T05:56:37;2.47;;;0.90;;
23187;SDS011;11762;59.878;17.686;2023-01-15T05:59:04;2.97;;;0.90;;
23187;SDS011;11762;59.878;17.686;2023-01-15T06:01:32;5.33;;;0.97;;
23187;SDS011;11762;59.878;17.686;2023-01-15T06:04:00;2.03;;;0.60;;
23187;SDS011;11762;59.878;17.686;2023-01-15T06:06:28;1.30;;;0.57;;
23187;SDS011;11762;59.878;17.686;2023-01-15T06:08:55;1.47;;;0.80;;
23187;SDS011;11762;59.878;17.686;2023-01-15T06:11:23;4.43;;;1.10;;
23187;SDS011;11762;59.878;17.686;2023-01-15T06:13:51;2.80;;;1.10;;
23187;SDS011;11762;59.878;17.686;2023-01-15T06:16:18;2.07;;;0.83;;
23187;SDS011;11762;59.878;17.686;2023-01-15T06:18:45;5.53;;;1.10;;
23187;SDS011;11762;59.878;17.686;2023-01-15T06:21:13;2.80;;;0.80;;
23187;SDS011;11762;59.878;17.686;2023-01-15T06:23:40;2.80;;;0.90;;
23187;SDS011;11762;59.878;17.686;2023-01-15T06:26:09;3.33;;;1.00;;
23187;SDS011;11762;59.878;17.686;2023-01-15T06:28:38;2.20;;;0.60;;
23187;SDS011;11762;59.878;17.686;2023-01-15T06:31:07;1.43;;;0.60;;
23187;SDS011;11762;59.878;17.686;2023-01-15T06:33:37;1.93;;;0.70;;
23187;SDS011;11762;59.878;17.686;2023-01-15T06:36:04;1.17;;;0.47;;
23187;SDS011;11762;59.878;17.686;2023-01-15T06:38:33;3.47;;;0.43;;
23187;SDS011;11762;59.878;17.686;2023-01-15T06:41:00;3.60;;;0.30;;
23187;SDS011;11762;59.878;17.686;2023-01-15T06:43:28;0.70;;;0.40;;
23187;SDS011;11762;59.878;17.686;2023-01-15T06:46:14;0.43;;;0.10;;
23187;SDS011;11762;59.878;17.686;2023-01-15T06:49:00;0.47;;;0.20;;
23187;SDS011;11762;59.878;17.686;2023-01-15T06:51:27;0.73;;;0.33;;
23187;SDS011;11762;59.878;17.686;2023-01-15T06:53:54;1.17;;;0.30;;
23187;SDS011;11762;59.878;17.686;2023-01-15T06:56:21;0.70;;;0.27;;
23187;SDS011;11762;59.878;17.686;2023-01-15T06:58:48;2.30;;;0.30;;
23187;SDS011;11762;59.878;17.686;2023-01-15T07:01:16;3.30;;;0.30;;
23187;SDS011;11762;59.878;17.686;2023-01-15T07:03:43;0.77;;;0.30;;
23187;SDS011;11762;59.878;17.686;2023-01-15T07:06:11;0.43;;;0.20;;
23187;SDS011;11762;59.878;17.686;2023-01-15T07:08:38;1.00;;;0.27;;
23187;SDS011;11762;59.878;17.686;2023-01-15T07:11:06;1.03;;;0.10;;
23187;SDS011;11762;59.878;17.686;2023-01-15T07:13:35;0.80;;;0.30;;
23187;SDS011;11762;59.878;17.686;2023-01-15T07:16:02;0.60;;;0.27;;
23187;SDS011;11762;59.878;17.686;2023-01-15T07:18:32;3.53;;;0.30;;
23187;SDS011;11762;59.878;17.686;2023-01-15T07:20:59;0.57;;;0.30;;
23187;SDS011;11762;59.878;17.686;2023-01-15T07:23:26;0.40;;;0.20;;
23187;SDS011;11762;59.878;17.686;2023-01-15T07:25:54;0.47;;;0.20;;
23187;SDS011;11762;59.878;17.686;2023-01-15T07:28:21;3.50;;;0.57;;
23187;SDS011;11762;59.878;17.686;2023-01-15T07:30:49;2.40;;;0.20;;
23187;SDS011;11762;59.878;17.686;2023-01-15T07:33:16;1.43;;;0.40;;
23187;SDS011;11762;59.878;17.686;2023-01-15T07:35:45;0.87;;;0.37;;
23187;SDS011;11762;59.878;17.686;2023-01-15T07:38:11;2.00;;;0.30;;
23187;SDS011;11762;59.878;17.686;2023-01-15T07:40:38;1.60;;;0.50;;
23187;SDS011;11762;59.878;17.686;2023-01-15T07:43:05;1.13;;;0.37;;
23187;SDS011;11762;59.878;17.686;2023-01-15T07:45:51;2.40;;;0.47;;
23187;SDS011;11762;59.878;17.686;2023-01-15T07:48:35;1.77;;;0.63;;
23187;SDS011;11762;59.878;17.686;2023-01-15T07:51:32;3.03;;;0.50;;
23187;SDS011;11762;59.878;17.686;2023-01-15T07:54:01;4.70;;;0.67;;
23187;SDS011;11762;59.878;17.686;2023-01-15T07:56:28;2.70;;;0.70;;
23187;SDS011;11762;59.878;17.686;2023-01-15T07:58:55;6.97;;;0.87;;
23187;SDS011;11762;59.878;17.686;2023-01-15T08:01:22;3.77;;;0.90;;
23187;SDS011;11762;59.878;17.686;2023-01-15T08:03:49;6.27;;;0.73;;
23187;SDS011;11762;59.878;17.686;2023-01-15T08:06:16;5.07;;;0.70;;
23187;SDS011;11762;59.878;17.686;2023-01-15T08:08:45;4.40;;;1.00;;
23187;SDS011;11762;59.878;17.686;2023-01-15T08:11:12;11.43;;;3.73;;
23187;SDS011;11762;59.878;17.686;2023-01-15T08:13:56;4.13;;;0.83;;
23187;SDS011;11762;59.878;17.686;2023-01-15T08:16:41;5.63;;;1.20;;
23187;SDS011;11762;59.878;17.686;2023-01-15T08:19:08;10.50;;;0.90;;
23187;SDS011;11762;59.878;17.686;2023-01-15T08:21:35;5.13;;;1.17;;
23187;SDS011;11762;59.878;17.686;2023-01-15T08:24:03;8.33;;;1.40;;
23187;SDS011;11762;59.878;17.686;2023-01-15T08:26:31;7.30;;;0.97;;
23187;SDS011;11762;59.878;17.686;2023-01-15T08:28:58;7.13;;;0.83;;
23187;SDS011;11762;59.878;17.686;2023-01-15T08:31:25;3.77;;;1.20;;
23187;SDS011;11762;59.878;17.686;2023-01-15T08:33:52;5.40;;;1.13;;
23187;SDS011;11762;59.878;17.686;2023-01-15T08:36:19;2.63;;;0.60;;
23187;SDS011;11762;59.878;17.686;2023-01-15T08:38:47;3.00;;;0.80;;
23187;SDS011;11762;59.878;17.686;2023-01-15T08:41:15;6.97;;;1.10;;
23187;SDS011;11762;59.878;17.686;2023-01-15T08:43:42;11.03;;;1.40;;
23187;SDS011;11762;59.878;17.686;2023-01-15T08:46:10;3.20;;;0.73;;
23187;SDS011;11762;59.878;17.686;2023-01-15T08:48:37;8.37;;;1.00;;
23187;SDS011;11762;59.878;17.686;2023-01-15T08:51:05;8.03;;;0.83;;
23187;SDS011;11762;59.878;17.686;2023-01-15T08:53:33;4.57;;;0.87;;
23187;SDS011;11762;59.878;17.686;2023-01-15T08:56:01;7.10;;;1.20;;
23187;SDS011;11762;59.878;17.686;2023-01-15T08:58:30;5.57;;;1.47;;
23187;SDS011;11762;59.878;17.686;2023-01-15T09:01:02;8.63;;;1.07;;
23187;SDS011;11762;59.878;17.686;2023-01-15T09:03:30;6.07;;;1.10;;
23187;SDS011;11762;59.878;17.686;2023-01-15T09:05:57;8.57;;;1.10;;
23187;SDS011;11762;59.878;17.686;2023-01-15T09:08:24;8.37;;;1.40;;
23187;SDS011;11762;59.878;17.686;2023-01-15T09:10:55;9.67;;;1.57;;
23187;SDS011;11762;59.878;17.686;2023-01-15T09:13:22;11.17;;;1.50;;
23187;SDS011;11762;59.878;17.686;2023-01-15T09:15:50;9.83;;;1.20;;
23187;SDS011;11762;59.878;17.686;2023-01-15T09:18:19;6.77;;;1.43;;
23187;SDS011;11762;59.878;17.686;2023-01-15T09:20:46;8.43;;;1.13;;
23187;SDS011;11762;59.878;17.686;2023-01-15T09:23:13;9.93;;;1.50;;
23187;SDS011;11762;59.878;17.686;2023-01-15T09:25:49;4.50;;;1.10;;
23187;SDS011;11762;59.878;17.686;2023-01-15T09:28:17;6.50;;;1.10;;
23187;SDS011;11762;59.878;17.686;2023-01-15T09:30:44;13.87;;;1.20;;
23187;SDS011;11762;59.878;17.686;2023-01-15T09:33:13;6.50;;;1.20;;
23187;SDS011;11762;59.878;17.686;2023-01-15T09:35:40;5.00;;;1.30;;
23187;SDS011;11762;59.878;17.686;2023-01-15T09:38:09;7.93;;;1.40;;
23187;SDS011;11762;59.878;17.686;2023-01-15T09:40:39;9.33;;;1.30;;
23187;SDS011;11762;59.878;17.686;2023-01-15T09:43:14;13.53;;;1.70;;
23187;SDS011;11762;59.878;17.686;2023-01-15T09:45:56;7.67;;;1.40;;
23187;SDS011;11762;59.878;17.686;2023-01-15T09:48:31;10.23;;;1.10;;
23187;SDS011;11762;59.878;17.686;2023-01-15T09:51:11;4.90;;;0.90;;
23187;SDS011;11762;59.878;17.686;2023-01-15T09:53:49;2.97;;;0.73;;
23187;SDS011;11762;59.878;17.686;2023-01-15T09:56:31;13.07;;;1.70;;
23187;SDS011;11762;59.878;17.686;2023-01-15T09:59:03;8.73;;;1.20;;
23187;SDS011;11762;59.878;17.686;2023-01-15T10:01:39;15.83;;;1.50;;
23187;SDS011;11762;59.878;17.686;2023-01-15T10:04:11;12.10;;;1.37;;
23187;SDS011;11762;59.878;17.686;2023-01-15T10:06:44;5.37;;;1.07;;
23187;SDS011;11762;59.878;17.686;2023-01-15T10:09:17;14.57;;;2.17;;
23187;SDS011;11762;59.878;17.686;2023-01-15T10:11:48;7.07;;;1.20;;
23187;SDS011;11762;59.878;17.686;2023-01-15T10:14:41;10.27;;;1.13;;
23187;SDS011;11762;59.878;17.686;2023-01-15T10:17:20;7.30;;;1.03;;
23187;SDS011;11762;59.878;17.686;2023-01-15T10:19:52;7.17;;;1.30;;
23187;SDS011;11762;59.878;17.686;2023-01-15T10:25:13;7.90;;;1.30;;
23187;SDS011;11762;59.878;17.686;2023-01-15T10:27:43;17.53;;;1.70;;
23187;SDS011;11762;59.878;17.686;2023-01-15T10:30:14;7.93;;;2.00;;
23187;SDS011;11762;59.878;17.686;2023-01-15T10:32:43;13.83;;;1.30;;
23187;SDS011;11762;59.878;17.686;2023-01-15T10:35:20;6.53;;;1.10;;
23187;SDS011;11762;59.878;17.686;2023-01-15T10:37:53;5.40;;;1.20;;
23187;SDS011;11762;59.878;17.686;2023-01-15T10:40:38;5.30;;;1.33;;
23187;SDS011;11762;59.878;17.686;2023-01-15T10:43:18;11.67;;;1.50;;
23187;SDS011;11762;59.878;17.686;2023-01-15T10:45:49;4.57;;;1.00;;
23187;SDS011;11762;59.878;17.686;2023-01-15T10:48:22;6.50;;;1.40;;
23187;SDS011;11762;59.878;17.686;2023-01-15T10:50:55;7.40;;;0.90;;
23187;SDS011;11762;59.878;17.686;2023-01-15T10:53:28;9.10;;;1.40;;
23187;SDS011;11762;59.878;17.686;2023-01-15T10:56:01;10.07;;;1.47;;
23187;SDS011;11762;59.878;17.686;2023-01-15T10:58:34;4.67;;;1.10;;
23187;SDS011;11762;59.878;17.686;2023-01-15T11:01:07;9.50;;;1.27;;
23187;SDS011;11762;59.878;17.686;2023-01-15T11:03:38;9.60;;;1.60;;
23187;SDS011;11762;59.878;17.686;2023-01-15T11:06:10;7.60;;;1.70;;
23187;SDS011;11762;59.878;17.686;2023-01-15T11:08:40;8.33;;;1.60;;
23187;SDS011;11762;59.878;17.686;2023-01-15T11:14:33;6.90;;;1.10;;
23187;SDS011;11762;59.878;17.686;2023-01-15T11:17:19;7.13;;;1.70;;
23187;SDS011;11762;59.878;17.686;2023-01-15T11:20:09;14.33;;;1.77;;
23187;SDS011;11762;59.878;17.686;2023-01-15T11:22:43;10.13;;;2.13;;
23187;SDS011;11762;59.878;17.686;2023-01-15T11:25:10;4.87;;;1.20;;
23187;SDS011;11762;59.878;17.686;2023-01-15T11:27:37;11.97;;;2.17;;
23187;SDS011;11762;59.878;17.686;2023-01-15T11:30:06;12.57;;;1.90;;
23187;SDS011;11762;59.878;17.686;2023-01-15T11:32:53;13.57;;;2.20;;
23187;SDS011;11762;59.878;17.686;2023-01-15T11:35:21;8.73;;;1.70;;
23187;SDS011;11762;59.878;17.686;2023-01-15T11:37:59;12.50;;;1.67;;
23187;SDS011;11762;59.878;17.686;2023-01-15T11:40:27;9.67;;;1.73;;
23187;SDS011;11762;59.878;17.686;2023-01-15T11:42:55;12.47;;;2.10;;
23187;SDS011;11762;59.878;17.686;2023-01-15T11:45:49;10.13;;;1.77;;
23187;SDS011;11762;59.878;17.686;2023-01-15T11:48:41;10.93;;;2.00;;
23187;SDS011;11762;59.878;17.686;2023-01-15T11:51:27;12.50;;;2.07;;
23187;SDS011;11762;59.878;17.686;2023-01-15T11:54:00;8.43;;;1.70;;
23187;SDS011;11762;59.878;17.686;2023-01-15T11:56:30;5.97;;;1.17;;
23187;SDS011;11762;59.878;17.686;2023-01-15T11:59:00;9.30;;;1.47;;
23187;SDS011;11762;59.878;17.686;2023-01-15T12:01:30;7.30;;;1.47;;
23187;SDS011;11762;59.878;17.686;2023-01-15T12:04:01;12.50;;;1.73;;
23187;SDS011;11762;59.878;17.686;2023-01-15T12:06:33;9.20;;;1.60;;
23187;SDS011;11762;59.878;17.686;2023-01-15T12:09:09;7.33;;;1.40;;
23187;SDS011;11762;59.878;17.686;2023-01-15T12:11:54;10.47;;;1.87;;
23187;SDS011;11762;59.878;17.686;2023-01-15T12:14:40;13.57;;;1.80;;
23187;SDS011;11762;59.878;17.686;2023-01-15T12:17:31;15.87;;;1.77;;
23187;SDS011;11762;59.878;17.686;2023-01-15T12:20:32;10.57;;;1.83;;
23187;SDS011;11762;59.878;17.686;2023-01-15T12:23:15;11.63;;;2.23;;
23187;SDS011;11762;59.878;17.686;2023-01-15T12:26:02;10.57;;;1.50;;
23187;SDS011;11762;59.878;17.686;2023-01-15T12:28:43;7.43;;;1.53;;
23187;SDS011;11762;59.878;17.686;2023-01-15T12:31:18;15.83;;;1.77;;
23187;SDS011;11762;59.878;17.686;2023-01-15T12:33:50;12.57;;;1.97;;
23187;SDS011;11762;59.878;17.686;2023-01-15T12:36:21;14.17;;;1.93;;
23187;SDS011;11762;59.878;17.686;2023-01-15T12:38:53;10.30;;;1.67;;
23187;SDS011;11762;59.878;17.686;2023-01-15T12:41:26;8.93;;;1.43;;
23187;SDS011;11762;59.878;17.686;2023-01-15T12:44:10;10.97;;;1.80;;
23187;SDS011;11762;59.878;17.686;2023-01-15T12:46:57;13.80;;;1.80;;
23187;SDS011;11762;59.878;17.686;2023-01-15T12:49:27;8.87;;;1.83;;
23187;SDS011;11762;59.878;17.686;2023-01-15T12:52:00;16.50;;;2.00;;
23187;SDS011;11762;59.878;17.686;2023-01-15T12:54:32;8.67;;;1.83;;
23187;SDS011;11762;59.878;17.686;2023-01-15T12:57:07;12.07;;;2.10;;
23187;SDS011;11762;59.878;17.686;2023-01-15T12:59:43;9.53;;;2.27;;
23187;SDS011;11762;59.878;17.686;2023-01-15T13:02:16;12.13;;;2.17;;
23187;SDS011;11762;59.878;17.686;2023-01-15T13:04:47;8.40;;;1.80;;
23187;SDS011;11762;59.878;17.686;2023-01-15T13:07:19;10.73;;;1.70;;
23187;SDS011;11762;59.878;17.686;2023-01-15T13:10:01;11.47;;;2.33;;
23187;SDS011;11762;59.878;17.686;2023-01-15T13:12:34;12.47;;;2.20;;
23187;SDS011;11762;59.878;17.686;2023-01-15T13:15:02;7.50;;;1.67;;
23187;SDS011;11762;59.878;17.686;2023-01-15T13:17:32;9.33;;;1.63;;
23187;SDS011;11762;59.878;17.686;2023-01-15T13:20:13;10.30;;;2.27;;
23187;SDS011;11762;59.878;17.686;2023-01-15T13:22:53;6.23;;;1.73;;
23187;SDS011;11762;59.878;17.686;2023-01-15T13:25:45;15.43;;;2.23;;
23187;SDS011;11762;59.878;17.686;2023-01-15T13:28:29;11.93;;;1.90;;
23187;SDS011;11762;59.878;17.686;2023-01-15T13:31:08;11.97;;;2.27;;
23187;SDS011;11762;59.878;17.686;2023-01-15T13:33:49;12.47;;;2.33;;
23187;SDS011;11762;59.878;17.686;2023-01-15T13:36:21;10.97;;;2.00;;
23187;SDS011;11762;59.878;17.686;2023-01-15T13:38:54;11.03;;;2.93;;
23187;SDS011;11762;59.878;17.686;2023-01-15T13:41:25;14.53;;;1.50;;
23187;SDS011;11762;59.878;17.686;2023-01-15T13:44:16;14.00;;;2.07;;
23187;SDS011;11762;59.878;17.686;2023-01-15T13:46:45;13.67;;;2.03;;
23187;SDS011;11762;59.878;17.686;2023-01-15T13:49:16;15.63;;;2.07;;
23187;SDS011;11762;59.878;17.686;2023-01-15T13:51:46;15.67;;;2.13;;
23187;SDS011;11762;59.878;17.686;2023-01-15T13:54:15;17.10;;;2.90;;
23187;SDS011;11762;59.878;17.686;2023-01-15T13:56:44;11.40;;;2.27;;
23187;SDS011;11762;59.878;17.686;2023-01-15T14:02:12;15.40;;;1.80;;
23187;SDS011;11762;59.878;17.686;2023-01-15T14:04:52;9.93;;;1.57;;
23187;SDS011;11762;59.878;17.686;2023-01-15T14:07:21;14.93;;;2.40;;
23187;SDS011;11762;59.878;17.686;2023-01-15T14:10:06;12.57;;;1.80;;
23187;SDS011;11762;59.878;17.686;2023-01-15T14:12:36;13.67;;;2.00;;
23187;SDS011;11762;59.878;17.686;2023-01-15T14:15:24;11.53;;;1.83;;
23187;SDS011;11762;59.878;17.686;2023-01-15T14:18:17;8.87;;;1.40;;
23187;SDS011;11762;59.878;17.686;2023-01-15T14:21:07;14.17;;;1.80;;
23187;SDS011;11762;59.878;17.686;2023-01-15T14:26:52;11.40;;;2.20;;
23187;SDS011;11762;59.878;17.686;2023-01-15T14:29:28;11.53;;;2.03;;
23187;SDS011;11762;59.878;17.686;2023-01-15T14:32:19;12.57;;;2.00;;
23187;SDS011;11762;59.878;17.686;2023-01-15T14:34:53;20.20;;;5.90;;
23187;SDS011;11762;59.878;17.686;2023-01-15T14:37:24;13.17;;;2.47;;
23187;SDS011;11762;59.878;17.686;2023-01-15T14:39:56;15.07;;;2.40;;
23187;SDS011;11762;59.878;17.686;2023-01-15T14:42:26;15.37;;;4.93;;
23187;SDS011;11762;59.878;17.686;2023-01-15T14:45:16;10.50;;;2.73;;
23187;SDS011;11762;59.878;17.686;2023-01-15T14:47:51;14.00;;;2.40;;
23187;SDS011;11762;59.878;17.686;2023-01-15T14:56:06;11.77;;;3.00;;
23187;SDS011;11762;59.878;17.686;2023-01-15T14:58:48;15.43;;;2.90;;
23187;SDS011;11762;59.878;17.686;2023-01-15T15:01:30;12.30;;;2.00;;
23187;SDS011;11762;59.878;17.686;2023-01-15T15:04:10;15.83;;;2.00;;
23187;SDS011;11762;59.878;17.686;2023-01-15T15:06:48;13.87;;;2.13;;
23187;SDS011;11762;59.878;17.686;2023-01-15T15:09:25;10.13;;;1.87;;
23187;SDS011;11762;59.878;17.686;2023-01-15T15:11:57;9.80;;;1.70;;
23187;SDS011;11762;59.878;17.686;2023-01-15T15:14:45;8.73;;;1.53;;
23187;SDS011;11762;59.878;17.686;2023-01-15T15:17:17;8.20;;;1.50;;